sensor_id;sensor_type;location;lat;lon;timestamp;pressure;altitude;pressure_sealevel;temperature;humidity
22647;BME280;11490;42.726;23.268;2024-01-27T00:00:43;95699.19;;;2.90;88.50
22647;BME280;11490;42.726;23.268;2024-01-27T00:03:09;95693.66;;;2.85;88.80
22647;BME280;11490;42.726;23.268;2024-01-27T00:05:34;95699.34;;;2.74;89.53
22647;BME280;11490;42.726;23.268;2024-01-27T00:07:59;95707.59;;;2.93;88.93
22647;BME280;11490;42.726;23.268;2024-01-27T00:10:25;95711.28;;;2.84;89.40
22647;BME280;11490;42.726;23.268;2024-01-27T00:12:50;95698.63;;;2.80;89.90
22647;BME280;11490;42.726;23.268;2024-01-27T00:15:16;95701.03;;;2.89;88.88
22647;BME280;11490;42.726;23.268;2024-01-27T00:17:41;95692.84;;;2.84;89.40
22647;BME280;11490;42.726;23.268;2024-01-27T00:20:07;95685.75;;;2.85;89.26
22647;BME280;11490;42.726;23.268;2024-01-27T00:22:32;95691.88;;;3.00;89.02
22647;BME280;11490;42.726;23.268;2024-01-27T00:24:58;95692.19;;;2.82;90.33
22647;BME280;11490;42.726;23.268;2024-01-27T00:27:23;95689.31;;;2.92;89.61
22647;BME280;11490;42.726;23.268;2024-01-27T00:29:48;95679.91;;;2.75;89.95
22647;BME280;11490;42.726;23.268;2024-01-27T00:32:14;95689.28;;;2.77;90.39
22647;BME280;11490;42.726;23.268;2024-01-27T00:34:39;95681.91;;;2.72;89.89
22647;BME280;11490;42.726;23.268;2024-01-27T00:37:05;95678.25;;;2.74;90.48
22647;BME280;11490;42.726;23.268;2024-01-27T00:39:31;95679.91;;;2.75;90.55
22647;BME280;11490;42.726;23.268;2024-01-27T00:41:58;95672.66;;;2.77;90.29
22647;BME280;11490;42.726;23.268;2024-01-27T00:44:24;95672.66;;;2.77;90.78
22647;BME280;11490;42.726;23.268;2024-01-27T00:46:49;95686.09;;;2.82;90.65
22647;BME280;11490;42.726;23.268;2024-01-27T00:49:14;95683.75;;;2.87;90.34
22647;BME280;11490;42.726;23.268;2024-01-27T00:51:40;95670.94;;;2.84;90.49
22647;BME280;11490;42.726;23.268;2024-01-27T00:54:05;95685.38;;;2.88;90.57
22647;BME280;11490;42.726;23.268;2024-01-27T00:56:31;95677.69;;;2.86;90.94
22647;BME280;11490;42.726;23.268;2024-01-27T00:58:57;95671.94;;;2.83;91.34
22647;BME280;11490;42.726;23.268;2024-01-27T01:01:22;95683.75;;;2.87;91.58
22647;BME280;11490;42.726;23.268;2024-01-27T01:03:47;95685.84;;;2.91;91.71
22647;BME280;11490;42.726;23.268;2024-01-27T01:06:13;95686.50;;;2.93;91.91
22647;BME280;11490;42.726;23.268;2024-01-27T01:08:38;95679.16;;;3.03;91.53
22647;BME280;11490;42.726;23.268;2024-01-27T01:11:04;95686.31;;;2.95;91.23
22647;BME280;11490;42.726;23.268;2024-01-27T01:13:29;95690.50;;;3.04;91.52
22647;BME280;11490;42.726;23.268;2024-01-27T01:15:54;95664.31;;;2.88;91.53
22647;BME280;11490;42.726;23.268;2024-01-27T01:18:20;95686.44;;;3.01;91.56
22647;BME280;11490;42.726;23.268;2024-01-27T01:20:45;95695.16;;;3.02;91.58
22647;BME280;11490;42.726;23.268;2024-01-27T01:23:11;95683.41;;;2.90;92.27
22647;BME280;11490;42.726;23.268;2024-01-27T01:25:36;95678.31;;;3.03;91.91
22647;BME280;11490;42.726;23.268;2024-01-27T01:28:02;95684.88;;;3.07;91.49
22647;BME280;11490;42.726;23.268;2024-01-27T01:30:28;95674.44;;;2.99;91.79
22647;BME280;11490;42.726;23.268;2024-01-27T01:32:54;95679.53;;;3.00;92.09
22647;BME280;11490;42.726;23.268;2024-01-27T01:35:19;95667.09;;;3.09;91.78
22647;BME280;11490;42.726;23.268;2024-01-27T01:37:44;95664.06;;;2.97;91.43
22647;BME280;11490;42.726;23.268;2024-01-27T01:40:10;95660.97;;;2.94;92.34
22647;BME280;11490;42.726;23.268;2024-01-27T01:42:35;95659.41;;;2.85;92.49
22647;BME280;11490;42.726;23.268;2024-01-27T01:45:39;95653.34;;;2.99;92.55
22647;BME280;11490;42.726;23.268;2024-01-27T01:48:06;95653.28;;;3.07;91.94
22647;BME280;11490;42.726;23.268;2024-01-27T01:50:32;95655.72;;;3.08;92.35
22647;BME280;11490;42.726;23.268;2024-01-27T01:52:58;95659.09;;;3.17;91.48
22647;BME280;11490;42.726;23.268;2024-01-27T01:55:23;95663.47;;;3.25;91.12
22647;BME280;11490;42.726;23.268;2024-01-27T01:57:49;95651.81;;;3.19;91.13
22647;BME280;11490;42.726;23.268;2024-01-27T02:00:15;95656.16;;;3.12;90.96
22647;BME280;11490;42.726;23.268;2024-01-27T02:02:45;95652.53;;;3.13;91.02
22647;BME280;11490;42.726;23.268;2024-01-27T02:05:12;95654.19;;;3.14;90.52
22647;BME280;11490;42.726;23.268;2024-01-27T02:07:37;95644.47;;;3.15;90.65
22647;BME280;11490;42.726;23.268;2024-01-27T02:10:03;95622.22;;;3.17;90.80
22647;BME280;11490;42.726;23.268;2024-01-27T02:12:29;95640.00;;;3.15;90.09
22647;BME280;11490;42.726;23.268;2024-01-27T02:14:54;95621.47;;;3.23;90.34
22647;BME280;11490;42.726;23.268;2024-01-27T02:17:19;95620.81;;;3.21;90.70
22647;BME280;11490;42.726;23.268;2024-01-27T02:19:45;95627.66;;;3.30;90.07
22647;BME280;11490;42.726;23.268;2024-01-27T02:22:10;95642.56;;;3.23;89.84
22647;BME280;11490;42.726;23.268;2024-01-27T02:24:36;95629.56;;;3.07;90.00
22647;BME280;11490;42.726;23.268;2024-01-27T02:27:01;95597.28;;;3.05;89.83
22647;BME280;11490;42.726;23.268;2024-01-27T02:29:27;95616.38;;;3.07;89.48
22647;BME280;11490;42.726;23.268;2024-01-27T02:31:53;95608.00;;;3.18;89.64
22647;BME280;11490;42.726;23.268;2024-01-27T02:34:19;95623.28;;;3.37;89.24
22647;BME280;11490;42.726;23.268;2024-01-27T02:36:44;95624.53;;;3.41;89.08
22647;BME280;11490;42.726;23.268;2024-01-27T02:39:10;95629.81;;;3.41;89.14
22647;BME280;11490;42.726;23.268;2024-01-27T02:41:36;95622.19;;;3.46;89.35
22647;BME280;11490;42.726;23.268;2024-01-27T02:44:05;95615.72;;;3.34;89.21
22647;BME280;11490;42.726;23.268;2024-01-27T02:46:30;95628.72;;;3.51;89.84
22647;BME280;11490;42.726;23.268;2024-01-27T02:48:55;95625.53;;;3.55;89.50
22647;BME280;11490;42.726;23.268;2024-01-27T02:51:21;95624.41;;;3.64;89.38
22647;BME280;11490;42.726;23.268;2024-01-27T02:53:46;95618.06;;;3.59;89.47
22647;BME280;11490;42.726;23.268;2024-01-27T02:56:12;95622.88;;;3.70;89.08
22647;BME280;11490;42.726;23.268;2024-01-27T02:58:37;95625.69;;;3.68;89.30
22647;BME280;11490;42.726;23.268;2024-01-27T03:01:03;95638.81;;;3.62;88.38
22647;BME280;11490;42.726;23.268;2024-01-27T03:03:28;95643.91;;;3.63;87.98
22647;BME280;11490;42.726;23.268;2024-01-27T03:05:54;95642.88;;;3.64;88.29
22647;BME280;11490;42.726;23.268;2024-01-27T03:08:20;95635.63;;;3.52;87.36
22647;BME280;11490;42.726;23.268;2024-01-27T03:10:45;95637.84;;;3.48;86.49
22647;BME280;11490;42.726;23.268;2024-01-27T03:13:11;95648.34;;;3.63;86.46
22647;BME280;11490;42.726;23.268;2024-01-27T03:15:36;95632.91;;;3.60;86.58
22647;BME280;11490;42.726;23.268;2024-01-27T03:18:03;95640.16;;;3.58;87.69
22647;BME280;11490;42.726;23.268;2024-01-27T03:20:28;95639.53;;;3.70;88.78
22647;BME280;11490;42.726;23.268;2024-01-27T03:22:56;95641.59;;;3.75;89.17
22647;BME280;11490;42.726;23.268;2024-01-27T03:25:22;95635.56;;;3.81;89.81
22647;BME280;11490;42.726;23.268;2024-01-27T03:27:47;95644.66;;;3.93;90.06
22647;BME280;11490;42.726;23.268;2024-01-27T03:30:12;95628.31;;;3.83;91.69
22647;BME280;11490;42.726;23.268;2024-01-27T03:32:38;95606.97;;;3.63;92.29
22647;BME280;11490;42.726;23.268;2024-01-27T03:35:04;95637.69;;;3.85;93.19
22647;BME280;11490;42.726;23.268;2024-01-27T03:37:29;95625.03;;;3.81;93.89
22647;BME280;11490;42.726;23.268;2024-01-27T03:39:55;95623.94;;;3.75;93.75
22647;BME280;11490;42.726;23.268;2024-01-27T03:42:21;95621.59;;;3.66;94.80
22647;BME280;11490;42.726;23.268;2024-01-27T03:44:46;95607.66;;;3.72;94.55
22647;BME280;11490;42.726;23.268;2024-01-27T03:47:13;95619.88;;;3.58;94.72
22647;BME280;11490;42.726;23.268;2024-01-27T03:49:39;95606.97;;;3.63;95.55
22647;BME280;11490;42.726;23.268;2024-01-27T03:52:05;95606.88;;;3.57;96.34
22647;BME280;11490;42.726;23.268;2024-01-27T03:54:30;95610.91;;;3.53;97.69
22647;BME280;11490;42.726;23.268;2024-01-27T03:56:56;95610.75;;;3.39;98.64
22647;BME280;11490;42.726;23.268;2024-01-27T03:59:21;95612.00;;;3.43;99.53
22647;BME280;11490;42.726;23.268;2024-01-27T04:01:47;95609.63;;;3.48;100.00
22647;BME280;11490;42.726;23.268;2024-01-27T04:04:12;95614.38;;;3.38;100.00
22647;BME280;11490;42.726;23.268;2024-01-27T04:06:41;95612.09;;;3.35;100.00
22647;BME280;11490;42.726;23.268;2024-01-27T04:09:08;95618.16;;;3.51;100.00
22647;BME280;11490;42.726;23.268;2024-01-27T04:11:36;95608.72;;;3.41;100.00
22647;BME280;11490;42.726;23.268;2024-01-27T04:14:03;95622.28;;;3.53;100.00
22647;BME280;11490;42.726;23.268;2024-01-27T04:16:29;95608.91;;;3.55;100.00
22647;BME280;11490;42.726;23.268;2024-01-27T04:18:54;95606.91;;;3.42;100.00
22647;BME280;11490;42.726;23.268;2024-01-27T04:21:20;95590.47;;;3.40;100.00
22647;BME280;11490;42.726;23.268;2024-01-27T04:23:45;95606.28;;;3.40;100.00
22647;BME280;11490;42.726;23.268;2024-01-27T04:26:11;95606.72;;;3.43;100.00
22647;BME280;11490;42.726;23.268;2024-01-27T04:28:36;95611.44;;;3.63;100.00
22647;BME280;11490;42.726;23.268;2024-01-27T04:31:02;95606.88;;;3.57;100.00
22647;BME280;11490;42.726;23.268;2024-01-27T04:33:28;95616.75;;;3.48;100.00
22647;BME280;11490;42.726;23.268;2024-01-27T04:35:54;95622.00;;;3.63;100.00
22647;BME280;11490;42.726;23.268;2024-01-27T04:38:20;95623.25;;;3.52;100.00
22647;BME280;11490;42.726;23.268;2024-01-27T04:40:45;95610.91;;;3.53;100.00
22647;BME280;11490;42.726;23.268;2024-01-27T04:43:15;95600.28;;;3.46;100.00
22647;BME280;11490;42.726;23.268;2024-01-27T04:45:40;95606.38;;;3.46;100.00
22647;BME280;11490;42.726;23.268;2024-01-27T04:48:06;95605.16;;;3.49;100.00
22647;BME280;11490;42.726;23.268;2024-01-27T04:50:32;95604.72;;;3.45;100.00
22647;BME280;11490;42.726;23.268;2024-01-27T04:52:57;95609.91;;;3.54;100.00
22647;BME280;11490;42.726;23.268;2024-01-27T04:55:22;95620.34;;;3.62;100.00
22647;BME280;11490;42.726;23.268;2024-01-27T04:57:48;95620.66;;;3.37;100.00
22647;BME280;11490;42.726;23.268;2024-01-27T05:00:14;95625.19;;;3.43;100.00
22647;BME280;11490;42.726;23.268;2024-01-27T05:02:40;95612.25;;;3.48;100.00
22647;BME280;11490;42.726;23.268;2024-01-27T05:05:06;95622.00;;;3.63;100.00
22647;BME280;11490;42.726;23.268;2024-01-27T05:07:32;95627.16;;;3.71;100.00
22647;BME280;11490;42.726;23.268;2024-01-27T05:09:57;95632.06;;;3.59;100.00
22647;BME280;11490;42.726;23.268;2024-01-27T05:12:23;95633.72;;;3.60;100.00
22647;BME280;11490;42.726;23.268;2024-01-27T05:14:48;95636.09;;;3.91;100.00
22647;BME280;11490;42.726;23.268;2024-01-27T05:17:14;95620.84;;;3.72;100.00
22647;BME280;11490;42.726;23.268;2024-01-27T05:19:40;95631.59;;;3.85;100.00
22647;BME280;11490;42.726;23.268;2024-01-27T05:22:05;95638.09;;;3.89;100.00
22647;BME280;11490;42.726;23.268;2024-01-27T05:24:30;95633.00;;;3.87;100.00
22647;BME280;11490;42.726;23.268;2024-01-27T05:26:56;95643.97;;;3.70;100.00
22647;BME280;11490;42.726;23.268;2024-01-27T05:29:21;95637.06;;;3.69;100.00
22647;BME280;11490;42.726;23.268;2024-01-27T05:31:47;95634.88;;;3.72;100.00
22647;BME280;11490;42.726;23.268;2024-01-27T05:34:13;95630.69;;;3.78;100.00
22647;BME280;11490;42.726;23.268;2024-01-27T05:36:38;95638.41;;;3.79;100.00
22647;BME280;11490;42.726;23.268;2024-01-27T05:39:04;95628.16;;;3.70;100.00
22647;BME280;11490;42.726;23.268;2024-01-27T05:41:30;95637.59;;;3.79;100.00
22647;BME280;11490;42.726;23.268;2024-01-27T05:43:56;95638.72;;;3.70;100.00
22647;BME280;11490;42.726;23.268;2024-01-27T05:46:25;95637.72;;;3.56;100.00
22647;BME280;11490;42.726;23.268;2024-01-27T05:48:50;95645.34;;;3.51;100.00
22647;BME280;11490;42.726;23.268;2024-01-27T05:51:22;95651.28;;;3.38;100.00
22647;BME280;11490;42.726;23.268;2024-01-27T05:53:48;95646.75;;;3.32;100.00
22647;BME280;11490;42.726;23.268;2024-01-27T05:56:14;95642.16;;;3.41;100.00
22647;BME280;11490;42.726;23.268;2024-01-27T05:58:39;95655.47;;;3.47;100.00
22647;BME280;11490;42.726;23.268;2024-01-27T06:01:04;95662.00;;;3.52;100.00
22647;BME280;11490;42.726;23.268;2024-01-27T06:03:30;95651.72;;;3.42;100.00
22647;BME280;11490;42.726;23.268;2024-01-27T06:05:56;95667.75;;;3.40;100.00
22647;BME280;11490;42.726;23.268;2024-01-27T06:08:21;95669.56;;;3.40;100.00
22647;BME280;11490;42.726;23.268;2024-01-27T06:10:47;95659.47;;;3.29;100.00
22647;BME280;11490;42.726;23.268;2024-01-27T06:13:12;95671.47;;;3.31;100.00
22647;BME280;11490;42.726;23.268;2024-01-27T06:15:38;95673.81;;;3.26;100.00
22647;BME280;11490;42.726;23.268;2024-01-27T06:18:03;95673.81;;;3.26;100.00
22647;BME280;11490;42.726;23.268;2024-01-27T06:20:29;95681.97;;;3.02;100.00
22647;BME280;11490;42.726;23.268;2024-01-27T06:22:55;95664.25;;;2.58;100.00
22647;BME280;11490;42.726;23.268;2024-01-27T06:25:21;95680.25;;;2.71;100.00
22647;BME280;11490;42.726;23.268;2024-01-27T06:27:47;95684.94;;;2.84;100.00
22647;BME280;11490;42.726;23.268;2024-01-27T06:30:13;95692.78;;;2.92;100.00
22647;BME280;11490;42.726;23.268;2024-01-27T06:32:39;95700.13;;;2.97;100.00
22647;BME280;11490;42.726;23.268;2024-01-27T06:35:04;95706.69;;;3.01;100.00
22647;BME280;11490;42.726;23.268;2024-01-27T06:37:30;95710.88;;;3.10;100.00
22647;BME280;11490;42.726;23.268;2024-01-27T06:39:56;95719.91;;;3.30;100.00
22647;BME280;11490;42.726;23.268;2024-01-27T06:42:21;95717.19;;;3.38;100.00
22647;BME280;11490;42.726;23.268;2024-01-27T06:44:47;95739.13;;;3.54;100.00
22647;BME280;11490;42.726;23.268;2024-01-27T06:47:12;95738.22;;;3.46;100.00
22647;BME280;11490;42.726;23.268;2024-01-27T06:49:37;95733.66;;;3.40;100.00
22647;BME280;11490;42.726;23.268;2024-01-27T06:52:03;95728.00;;;3.43;100.00
22647;BME280;11490;42.726;23.268;2024-01-27T06:54:29;95725.75;;;3.40;100.00
22647;BME280;11490;42.726;23.268;2024-01-27T06:56:54;95720.34;;;3.48;100.00
22647;BME280;11490;42.726;23.268;2024-01-27T06:59:19;95731.13;;;3.62;100.00
22647;BME280;11490;42.726;23.268;2024-01-27T07:01:46;95722.72;;;3.43;100.00
22647;BME280;11490;42.726;23.268;2024-01-27T07:04:14;95716.38;;;3.53;100.00
22647;BME280;11490;42.726;23.268;2024-01-27T07:06:40;95690.09;;;3.30;100.00
22647;BME280;11490;42.726;23.268;2024-01-27T07:09:05;95701.28;;;3.46;100.00
22647;BME280;11490;42.726;23.268;2024-01-27T07:11:32;95697.91;;;3.53;100.00
22647;BME280;11490;42.726;23.268;2024-01-27T07:13:58;95683.09;;;3.52;100.00
22647;BME280;11490;42.726;23.268;2024-01-27T07:16:24;95688.28;;;3.60;100.00
22647;BME280;11490;42.726;23.268;2024-01-27T07:18:50;95680.47;;;3.52;100.00
22647;BME280;11490;42.726;23.268;2024-01-27T07:21:16;95713.00;;;3.73;100.00
22647;BME280;11490;42.726;23.268;2024-01-27T07:23:42;95739.66;;;3.93;100.00
22647;BME280;11490;42.726;23.268;2024-01-27T07:26:10;95700.81;;;3.72;100.00
22647;BME280;11490;42.726;23.268;2024-01-27T07:28:35;95750.66;;;3.97;100.00
22647;BME280;11490;42.726;23.268;2024-01-27T07:31:01;95726.84;;;3.75;100.00
22647;BME280;11490;42.726;23.268;2024-01-27T07:33:26;95731.63;;;3.72;100.00
22647;BME280;11490;42.726;23.268;2024-01-27T07:35:52;95799.53;;;4.07;100.00
22647;BME280;11490;42.726;23.268;2024-01-27T07:38:17;95803.16;;;4.06;100.00
22647;BME280;11490;42.726;23.268;2024-01-27T07:40:43;95756.50;;;3.77;100.00
22647;BME280;11490;42.726;23.268;2024-01-27T07:43:08;95776.97;;;3.90;100.00
22647;BME280;11490;42.726;23.268;2024-01-27T07:45:33;95800.78;;;4.11;100.00
22647;BME280;11490;42.726;23.268;2024-01-27T07:47:59;95788.72;;;4.02;100.00
22647;BME280;11490;42.726;23.268;2024-01-27T07:50:24;95793.91;;;4.10;100.00
22647;BME280;11490;42.726;23.268;2024-01-27T07:52:50;95796.25;;;4.05;100.00
22647;BME280;11490;42.726;23.268;2024-01-27T07:55:15;95804.81;;;4.07;100.00
22647;BME280;11490;42.726;23.268;2024-01-27T07:57:45;95813.63;;;4.14;100.00
22647;BME280;11490;42.726;23.268;2024-01-27T08:00:10;95803.16;;;4.06;100.00
22647;BME280;11490;42.726;23.268;2024-01-27T08:02:36;95833.00;;;4.21;100.00
22647;BME280;11490;42.726;23.268;2024-01-27T08:05:03;95796.50;;;3.96;100.00
22647;BME280;11490;42.726;23.268;2024-01-27T08:07:29;95823.47;;;4.06;100.00
22647;BME280;11490;42.726;23.268;2024-01-27T08:09:55;95812.47;;;4.02;100.00
22647;BME280;11490;42.726;23.268;2024-01-27T08:12:22;95855.78;;;4.22;100.00
22647;BME280;11490;42.726;23.268;2024-01-27T08:14:47;95836.47;;;4.22;100.00
22647;BME280;11490;42.726;23.268;2024-01-27T08:17:13;95787.50;;;4.05;100.00
22647;BME280;11490;42.726;23.268;2024-01-27T08:19:39;95823.75;;;4.25;100.00
22647;BME280;11490;42.726;23.268;2024-01-27T08:22:04;95826.34;;;4.11;100.00
22647;BME280;11490;42.726;23.268;2024-01-27T08:24:30;95840.84;;;4.30;100.00
22647;BME280;11490;42.726;23.268;2024-01-27T08:26:55;95819.16;;;4.19;100.00
22647;BME280;11490;42.726;23.268;2024-01-27T08:29:21;95818.53;;;4.32;100.00
22647;BME280;11490;42.726;23.268;2024-01-27T08:31:46;95780.97;;;4.15;100.00
22647;BME280;11490;42.726;23.268;2024-01-27T08:34:12;95776.41;;;4.09;100.00
22647;BME280;11490;42.726;23.268;2024-01-27T08:36:41;95821.63;;;4.36;100.00
22647;BME280;11490;42.726;23.268;2024-01-27T08:39:06;95847.94;;;4.44;100.00
22647;BME280;11490;42.726;23.268;2024-01-27T08:41:34;95812.59;;;4.45;100.00
22647;BME280;11490;42.726;23.268;2024-01-27T08:44:00;95806.97;;;4.48;100.00
22647;BME280;11490;42.726;23.268;2024-01-27T08:46:25;95818.94;;;4.50;100.00
22647;BME280;11490;42.726;23.268;2024-01-27T08:48:51;95840.88;;;4.65;100.00
22647;BME280;11490;42.726;23.268;2024-01-27T08:51:16;95837.50;;;4.57;100.00
22647;BME280;11490;42.726;23.268;2024-01-27T08:53:43;95816.88;;;4.46;100.00
22647;BME280;11490;42.726;23.268;2024-01-27T08:56:15;95804.84;;;4.43;100.00
22647;BME280;11490;42.726;23.268;2024-01-27T08:58:42;95813.13;;;4.55;100.00
22647;BME280;11490;42.726;23.268;2024-01-27T09:01:09;95811.28;;;4.70;100.00
22647;BME280;11490;42.726;23.268;2024-01-27T09:03:35;95822.25;;;5.10;100.00
22647;BME280;11490;42.726;23.268;2024-01-27T09:06:01;95815.94;;;4.89;100.00
22647;BME280;11490;42.726;23.268;2024-01-27T09:08:26;95795.03;;;4.73;99.75
22647;BME280;11490;42.726;23.268;2024-01-27T09:10:51;95824.88;;;4.88;99.95
22647;BME280;11490;42.726;23.268;2024-01-27T09:13:17;95830.63;;;4.92;100.00
22647;BME280;11490;42.726;23.268;2024-01-27T09:15:42;95859.13;;;4.96;100.00
22647;BME280;11490;42.726;23.268;2024-01-27T09:18:08;95842.38;;;4.89;100.00
22647;BME280;11490;42.726;23.268;2024-01-27T09:20:33;95827.94;;;4.71;100.00
22647;BME280;11490;42.726;23.268;2024-01-27T09:22:59;95822.59;;;4.64;100.00
22647;BME280;11490;42.726;23.268;2024-01-27T09:25:24;95805.81;;;4.57;100.00
22647;BME280;11490;42.726;23.268;2024-01-27T09:27:53;95775.69;;;4.51;100.00
22647;BME280;11490;42.726;23.268;2024-01-27T09:30:18;95791.25;;;4.61;100.00
22647;BME280;11490;42.726;23.268;2024-01-27T09:32:44;95786.66;;;4.70;100.00
22647;BME280;11490;42.726;23.268;2024-01-27T09:35:09;95752.97;;;4.57;100.00
22647;BME280;11490;42.726;23.268;2024-01-27T09:37:35;95789.25;;;4.63;100.00
22647;BME280;11490;42.726;23.268;2024-01-27T09:40:00;95768.94;;;4.63;100.00
22647;BME280;11490;42.726;23.268;2024-01-27T09:42:28;95780.81;;;4.74;100.00
22647;BME280;11490;42.726;23.268;2024-01-27T09:44:56;95804.00;;;4.72;100.00
22647;BME280;11490;42.726;23.268;2024-01-27T09:47:23;95753.25;;;4.41;100.00
22647;BME280;11490;42.726;23.268;2024-01-27T09:49:49;95805.16;;;4.70;100.00
22647;BME280;11490;42.726;23.268;2024-01-27T09:52:16;95788.25;;;4.64;100.00
22647;BME280;11490;42.726;23.268;2024-01-27T09:54:41;95791.19;;;4.54;100.00
22647;BME280;11490;42.726;23.268;2024-01-27T09:57:08;95823.69;;;4.55;100.00
22647;BME280;11490;42.726;23.268;2024-01-27T09:59:34;95806.75;;;4.64;100.00
22647;BME280;11490;42.726;23.268;2024-01-27T10:02:02;95799.28;;;4.53;100.00
22647;BME280;11490;42.726;23.268;2024-01-27T10:04:29;95817.41;;;4.56;100.00
22647;BME280;11490;42.726;23.268;2024-01-27T10:06:56;95822.41;;;4.51;100.00
22647;BME280;11490;42.726;23.268;2024-01-27T10:09:23;95830.97;;;4.53;100.00
22647;BME280;11490;42.726;23.268;2024-01-27T10:11:49;95827.88;;;4.64;100.00
22647;BME280;11490;42.726;23.268;2024-01-27T10:14:14;95793.25;;;4.59;100.00
22647;BME280;11490;42.726;23.268;2024-01-27T10:16:43;95828.47;;;4.66;100.00
22647;BME280;11490;42.726;23.268;2024-01-27T10:19:17;95805.31;;;4.47;100.00
22647;BME280;11490;42.726;23.268;2024-01-27T10:21:43;95826.94;;;4.57;100.00
22647;BME280;11490;42.726;23.268;2024-01-27T10:24:09;95838.09;;;4.52;100.00
22647;BME280;11490;42.726;23.268;2024-01-27T10:26:34;95842.53;;;4.52;100.00
22647;BME280;11490;42.726;23.268;2024-01-27T10:29:00;95820.63;;;4.37;100.00
22647;BME280;11490;42.726;23.268;2024-01-27T10:31:27;95843.53;;;4.51;100.00
22647;BME280;11490;42.726;23.268;2024-01-27T10:33:55;95836.63;;;4.50;100.00
22647;BME280;11490;42.726;23.268;2024-01-27T10:36:25;95775.13;;;4.05;100.00
22647;BME280;11490;42.726;23.268;2024-01-27T10:38:51;95818.47;;;4.25;100.00
22647;BME280;11490;42.726;23.268;2024-01-27T10:41:26;95838.56;;;4.41;100.00
22647;BME280;11490;42.726;23.268;2024-01-27T10:43:53;95851.75;;;4.56;100.00
22647;BME280;11490;42.726;23.268;2024-01-27T10:46:21;95844.84;;;4.40;100.00
22647;BME280;11490;42.726;23.268;2024-01-27T10:48:51;95831.19;;;4.37;100.00
22647;BME280;11490;42.726;23.268;2024-01-27T10:51:28;95868.69;;;4.47;100.00
22647;BME280;11490;42.726;23.268;2024-01-27T10:54:01;95849.94;;;4.56;100.00
22647;BME280;11490;42.726;23.268;2024-01-27T10:56:29;95856.75;;;4.51;100.00
22647;BME280;11490;42.726;23.268;2024-01-27T10:58:57;95837.38;;;4.44;100.00
22647;BME280;11490;42.726;23.268;2024-01-27T11:01:24;95848.53;;;4.60;100.00
22647;BME280;11490;42.726;23.268;2024-01-27T11:03:52;95864.38;;;4.75;100.00
22647;BME280;11490;42.726;23.268;2024-01-27T11:06:21;95864.53;;;4.74;100.00
22647;BME280;11490;42.726;23.268;2024-01-27T11:08:49;95876.66;;;4.83;100.00
22647;BME280;11490;42.726;23.268;2024-01-27T11:11:18;95808.78;;;4.47;100.00
22647;BME280;11490;42.726;23.268;2024-01-27T11:13:44;95860.16;;;4.81;100.00
22647;BME280;11490;42.726;23.268;2024-01-27T11:16:17;95865.53;;;4.87;100.00
22647;BME280;11490;42.726;23.268;2024-01-27T11:18:43;95840.22;;;4.78;100.00
22647;BME280;11490;42.726;23.268;2024-01-27T11:21:13;95844.22;;;4.74;100.00
22647;BME280;11490;42.726;23.268;2024-01-27T11:23:40;95869.38;;;4.85;100.00
22647;BME280;11490;42.726;23.268;2024-01-27T11:26:06;95838.94;;;4.74;100.00
22647;BME280;11490;42.726;23.268;2024-01-27T11:28:32;95859.66;;;4.71;100.00
22647;BME280;11490;42.726;23.268;2024-01-27T11:30:58;95862.84;;;4.66;100.00
22647;BME280;11490;42.726;23.268;2024-01-27T11:33:26;95860.84;;;4.68;100.00
22647;BME280;11490;42.726;23.268;2024-01-27T11:36:05;95883.34;;;4.64;100.00
22647;BME280;11490;42.726;23.268;2024-01-27T11:38:31;95874.69;;;4.70;100.00
22647;BME280;11490;42.726;23.268;2024-01-27T11:40:59;95870.03;;;4.57;100.00
22647;BME280;11490;42.726;23.268;2024-01-27T11:43:24;95887.84;;;4.49;100.00
22647;BME280;11490;42.726;23.268;2024-01-27T11:46:01;95881.44;;;4.58;100.00
22647;BME280;11490;42.726;23.268;2024-01-27T11:48:27;95856.41;;;4.39;100.00
22647;BME280;11490;42.726;23.268;2024-01-27T11:51:10;95879.25;;;4.47;100.00
22647;BME280;11490;42.726;23.268;2024-01-27T11:53:36;95878.34;;;4.40;100.00
22647;BME280;11490;42.726;23.268;2024-01-27T11:56:03;95884.25;;;4.42;99.67
22647;BME280;11490;42.726;23.268;2024-01-27T11:58:29;95904.38;;;4.43;98.49
22647;BME280;11490;42.726;23.268;2024-01-27T12:00:55;95900.19;;;4.34;98.43
22647;BME280;11490;42.726;23.268;2024-01-27T12:03:21;95903.94;;;4.39;97.75
22647;BME280;11490;42.726;23.268;2024-01-27T12:05:47;95890.00;;;4.31;98.18
22647;BME280;11490;42.726;23.268;2024-01-27T12:08:12;95896.56;;;4.35;97.87
22647;BME280;11490;42.726;23.268;2024-01-27T12:10:38;95944.00;;;4.57;97.65
22647;BME280;11490;42.726;23.268;2024-01-27T12:13:04;95919.22;;;4.58;97.59
22647;BME280;11490;42.726;23.268;2024-01-27T12:15:30;95867.88;;;4.46;97.47
22647;BME280;11490;42.726;23.268;2024-01-27T12:17:55;95897.06;;;4.74;96.94
22647;BME280;11490;42.726;23.268;2024-01-27T12:20:22;95891.47;;;4.98;95.90
22647;BME280;11490;42.726;23.268;2024-01-27T12:22:48;95946.56;;;5.52;94.21
22647;BME280;11490;42.726;23.268;2024-01-27T12:25:16;95949.75;;;5.62;94.10
22647;BME280;11490;42.726;23.268;2024-01-27T12:27:43;95951.63;;;5.68;93.44
22647;BME280;11490;42.726;23.268;2024-01-27T12:30:09;95954.03;;;5.85;94.52
22647;BME280;11490;42.726;23.268;2024-01-27T12:32:35;95958.72;;;6.04;93.58
22647;BME280;11490;42.726;23.268;2024-01-27T12:35:05;95963.72;;;6.20;90.23
22647;BME280;11490;42.726;23.268;2024-01-27T12:37:32;95961.59;;;6.09;90.44
22647;BME280;11490;42.726;23.268;2024-01-27T12:39:58;95974.09;;;5.94;89.91
22647;BME280;11490;42.726;23.268;2024-01-27T12:42:23;95958.44;;;5.99;91.50
22647;BME280;11490;42.726;23.268;2024-01-27T12:44:49;95948.38;;;5.88;92.07
22647;BME280;11490;42.726;23.268;2024-01-27T12:47:14;95928.44;;;5.92;91.46
22647;BME280;11490;42.726;23.268;2024-01-27T12:49:40;95975.06;;;6.14;91.09